Time;durP1;ratioP1;P1;durP2;ratioP2;P2;SDS_P1;SDS_P2;PMS_P1;PMS_P2;Temp;Humidity;BMP_temperature;BMP_pressure;BME280_temperature;BME280_humidity;BME280_pressure;Samples;Min_cycle;Max_cycle;Signal;HPM_P1;HPM_P2
2023/03/08 00:00:06;;;;;;;18.30;13.77;;;;;;;-3.48;77.34;146471.59;5141586;27;20368;-65
2023/03/08 00:02:32;;;;;;;19.58;13.05;;;;;;;-3.47;77.43;146474.09;5136697;27;20034;-66
2023/03/08 00:04:57;;;;;;;17.75;13.23;;;;;;;-3.55;76.86;146452.56;5147211;27;20052;-66
2023/03/08 00:07:23;;;;;;;17.95;12.52;;;;;;;-3.44;77.66;146479.19;5106429;27;20039;-65
2023/03/08 00:09:49;;;;;;;19.27;13.77;;;;;;;-3.45;77.34;146476.66;5143588;27;20339;-65
2023/03/08 00:12:18;;;;;;;18.67;13.80;;;;;;;-3.55;76.63;146453.88;5147051;27;20124;-66
2023/03/08 00:14:44;;;;;;;17.75;13.65;;;;;;;-3.59;77.63;146443.72;5143284;27;20327;-65
2023/03/08 00:17:11;;;;;;;23.10;14.90;;;;;;;-3.64;77.22;146431.03;5147835;27;20023;-65
2023/03/08 00:19:37;;;;;;;21.48;15.13;;;;;;;-3.68;76.86;146422.19;5127995;27;20019;-66
2023/03/08 00:22:03;;;;;;;18.92;14.45;;;;;;;-3.57;77.04;146448.78;5153312;27;20027;-68
2023/03/08 00:24:29;;;;;;;21.40;14.40;;;;;;;-3.68;76.37;146422.19;5129811;27;20039;-66
2023/03/08 00:26:55;;;;;;;19.05;14.57;;;;;;;-3.71;77.42;146414.53;5124863;27;20046;-66
2023/03/08 00:29:21;;;;;;;17.58;13.02;;;;;;;-3.70;77.63;146417.09;5125162;28;20206;-67
2023/03/08 00:31:46;;;;;;;19.48;14.18;;;;;;;-3.66;77.31;146425.97;5139229;28;20046;-66
2023/03/08 00:34:12;;;;;;;20.50;15.32;;;;;;;-3.72;76.95;146412.03;5131373;28;20328;-66
2023/03/08 00:36:38;;;;;;;20.52;14.32;;;;;;;-3.74;77.48;146406.94;5131837;27;20023;-67
2023/03/08 00:39:04;;;;;;;18.23;15.00;;;;;;;-3.83;76.52;146385.41;5152921;27;20062;-66
2023/03/08 00:41:29;;;;;;;18.30;14.10;;;;;;;-3.80;77.04;146391.75;5132950;27;20046;-66
2023/03/08 00:43:55;;;;;;;19.98;14.65;;;;;;;-3.80;76.44;146391.75;5137810;27;20195;-65
2023/03/08 00:46:21;;;;;;;18.00;14.27;;;;;;;-3.85;76.80;146379.06;5152495;27;20215;-66
2023/03/08 00:48:46;;;;;;;16.00;13.43;;;;;;;-3.84;76.69;146382.88;5138472;28;20031;-66
2023/03/08 00:51:17;;;;;;;21.52;14.57;;;;;;;-4.00;76.53;146343.59;5158233;27;20023;-66
2023/03/08 00:53:43;;;;;;;18.48;14.10;;;;;;;-3.92;76.37;146362.63;5153360;27;20046;-66
2023/03/08 00:56:09;;;;;;;17.95;13.52;;;;;;;-3.95;76.69;146355.00;5155101;27;20027;-68
2023/03/08 00:58:36;;;;;;;21.58;14.82;;;;;;;-3.97;76.00;146348.69;5136902;27;20131;-65
2023/03/08 01:01:01;;;;;;;18.95;14.25;;;;;;;-3.98;75.79;146347.41;5144556;27;20183;-66
2023/03/08 01:03:27;;;;;;;20.15;14.15;;;;;;;-3.97;75.42;146349.94;5147249;27;20312;-66
2023/03/08 01:05:54;;;;;;;19.70;13.18;;;;;;;-4.00;75.54;146343.59;5154410;27;20122;-66
2023/03/08 01:08:21;;;;;;;25.50;14.93;;;;;;;-4.04;75.89;146332.22;5135795;27;20020;-67
2023/03/08 01:10:52;;;;;;;19.92;14.23;;;;;;;-4.20;75.63;146292.97;5138541;27;20027;-67
2023/03/08 01:13:19;;;;;;;20.23;14.07;;;;;;;-4.06;76.07;146327.13;5146688;27;20094;-66
2023/03/08 01:15:45;;;;;;;20.60;14.75;;;;;;;-4.03;76.33;146334.75;5146990;27;20066;-65
2023/03/08 01:18:11;;;;;;;19.13;14.57;;;;;;;-4.02;76.22;146338.56;5146675;27;20086;-65
2023/03/08 01:20:36;;;;;;;19.00;14.68;;;;;;;-4.05;76.51;146329.66;5158615;27;20029;-65
2023/03/08 01:23:02;;;;;;;19.95;15.15;;;;;;;-4.08;76.41;146323.31;5158268;27;20083;-66
2023/03/08 01:25:28;;;;;;;18.80;14.00;;;;;;;-4.05;76.87;146329.66;5128468;27;20110;-66
2023/03/08 01:27:53;;;;;;;16.85;13.98;;;;;;;-4.09;76.45;146320.81;5128704;27;20201;-66
2023/03/08 01:30:19;;;;;;;21.08;13.95;;;;;;;-4.13;76.36;146309.38;5137037;27;20027;-65
2023/03/08 01:32:45;;;;;;;19.15;14.57;;;;;;;-4.21;76.42;146291.66;5159111;27;20098;-66
2023/03/08 01:35:10;;;;;;;23.83;15.43;;;;;;;-4.20;78.06;146294.22;5155136;27;20072;-66
2023/03/08 01:37:36;;;;;;;22.02;15.18;;;;;;;-4.24;77.17;146282.81;5149709;27;20122;-65
2023/03/08 01:40:03;;;;;;;23.67;15.90;;;;;;;-4.27;76.23;146276.47;5160380;27;20114;-66
2023/03/08 01:42:29;;;;;;;20.90;15.10;;;;;;;-4.37;77.88;146252.41;5155342;27;20023;-65
2023/03/08 01:44:56;;;;;;;18.80;14.45;;;;;;;-4.28;77.48;146273.94;5146674;27;20316;-66
2023/03/08 01:47:27;;;;;;;20.70;15.32;;;;;;;-4.25;77.46;146280.28;5155333;27;20081;-66
2023/03/08 01:49:56;;;;;;;18.52;13.88;;;;;;;-4.28;77.32;146273.94;5146189;27;20031;-65
2023/03/08 01:52:31;;;;;;;21.33;15.35;;;;;;;-4.21;77.40;146290.41;5129255;27;20043;-65
2023/03/08 01:55:02;;;;;;;21.92;15.35;;;;;;;-4.11;78.32;146314.47;5152720;27;20035;-65
2023/03/08 01:57:34;;;;;;;21.58;15.38;;;;;;;-4.11;78.42;146314.47;5146366;27;20189;-65
2023/03/08 02:00:06;;;;;;;23.23;16.42;;;;;;;-4.24;77.71;146284.06;5155166;27;20034;-67
2023/03/08 02:02:41;;;;;;;22.10;16.50;;;;;;;-4.27;77.79;146276.47;5145163;27;20027;-66
2023/03/08 02:05:09;;;;;;;25.20;17.25;;;;;;;-4.23;77.81;146286.63;5127874;27;20022;-64
2023/03/08 02:07:34;;;;;;;23.73;17.58;;;;;;;-4.26;78.12;146279.03;5130920;27;20102;-64
2023/03/08 02:10:00;;;;;;;22.98;15.85;;;;;;;-4.22;77.20;146287.88;5145745;27;20038;-65
2023/03/08 02:12:26;;;;;;;22.42;16.08;;;;;;;-4.25;79.08;146281.53;5156155;27;20015;-65
2023/03/08 02:14:52;;;;;;;25.33;17.33;;;;;;;-4.25;79.07;146280.28;5147112;27;20019;-66
2023/03/08 02:17:18;;;;;;;23.13;16.42;;;;;;;-4.16;79.40;146304.34;5154282;27;20037;-66
2023/03/08 02:20:14;;;;;;;22.17;16.67;;;;;;;-4.38;79.52;146249.84;5148486;27;20086;-67
2023/03/08 02:22:41;;;;;;;23.20;16.63;;;;;;;-4.26;79.61;146277.72;5145953;27;20057;-67
2023/03/08 02:25:26;;;;;;;21.45;16.75;;;;;;;-4.32;78.27;146262.53;5145946;27;20098;-65
2023/03/08 02:27:53;;;;;;;25.90;17.38;;;;;;;-4.25;78.50;146280.28;5127226;27;20031;-67
2023/03/08 02:30:25;;;;;;;21.33;15.73;;;;;;;-4.28;78.61;146272.69;5138088;27;20030;-66
2023/03/08 02:32:50;;;;;;;20.17;16.17;;;;;;;-4.26;78.22;146279.03;5144447;27;20323;-66
2023/03/08 02:35:17;;;;;;;22.00;16.60;;;;;;;-4.37;78.44;146252.41;5136976;27;20042;-66
2023/03/08 02:37:42;;;;;;;21.08;15.93;;;;;;;-4.32;77.38;146263.78;5142185;27;20050;-66
2023/03/08 02:40:10;;;;;;;22.20;16.48;;;;;;;-4.35;78.07;146257.50;5145229;27;20030;-65
2023/03/08 02:42:36;;;;;;;24.02;15.57;;;;;;;-4.40;77.91;146244.81;5145501;27;20082;-64
2023/03/08 02:45:02;;;;;;;26.63;16.77;;;;;;;-4.38;77.61;146249.84;5148329;27;20338;-64
2023/03/08 02:47:28;;;;;;;20.80;15.80;;;;;;;-4.34;78.43;146258.75;5155404;27;20018;-65
2023/03/08 02:49:54;;;;;;;24.38;16.67;;;;;;;-4.45;77.49;146230.88;5148972;27;20037;-65
2023/03/08 02:52:19;;;;;;;27.35;16.70;;;;;;;-4.46;78.18;146229.63;5145659;27;20037;-64
2023/03/08 02:54:45;;;;;;;20.33;15.13;;;;;;;-4.42;77.39;146239.72;5133434;27;20019;-64
2023/03/08 02:57:10;;;;;;;24.92;17.15;;;;;;;-4.55;76.59;146206.81;5130460;27;20019;-65
2023/03/08 02:59:36;;;;;;;26.98;17.45;;;;;;;-4.49;78.09;146220.75;5154876;27;20027;-65
2023/03/08 03:02:01;;;;;;;24.70;17.23;;;;;;;-4.52;77.67;146214.41;5145946;27;20088;-64
2023/03/08 03:04:31;;;;;;;24.50;17.80;;;;;;;-4.64;75.91;146185.31;5127815;27;20022;-65
2023/03/08 03:06:58;;;;;;;25.42;17.20;;;;;;;-4.61;77.61;146192.88;5155889;27;20082;-65
2023/03/08 03:09:23;;;;;;;22.83;16.77;;;;;;;-4.59;75.95;146197.97;5148436;27;20311;-64
2023/03/08 03:11:49;;;;;;;26.95;18.85;;;;;;;-4.61;77.09;146192.88;5157141;27;20045;-65
2023/03/08 03:14:15;;;;;;;26.02;18.15;;;;;;;-4.71;76.80;146168.81;5148067;27;20023;-64
2023/03/08 03:16:40;;;;;;;26.30;17.50;;;;;;;-4.77;77.38;146152.41;5147389;27;20019;-64
2023/03/08 03:19:06;;;;;;;23.23;17.15;;;;;;;-4.72;77.28;146166.34;5154613;27;20035;-65
2023/03/08 03:21:32;;;;;;;28.20;18.80;;;;;;;-4.74;77.13;146160.00;5149074;27;20080;-64
2023/03/08 03:23:57;;;;;;;25.13;17.65;;;;;;;-4.75;77.61;146158.69;5157501;27;20026;-65
2023/03/08 03:26:25;;;;;;;23.95;17.35;;;;;;;-4.69;76.68;146173.91;5149313;27;20031;-67
2023/03/08 03:28:51;;;;;;;25.75;18.70;;;;;;;-4.80;76.98;146146.06;5144486;27;20316;-65
2023/03/08 03:31:19;;;;;;;30.50;19.25;;;;;;;-4.92;79.14;146116.91;5135023;27;20093;-65
2023/03/08 03:33:46;;;;;;;26.55;18.67;;;;;;;-4.82;78.39;146140.97;5143995;27;20031;-64
2023/03/08 03:36:14;;;;;;;33.40;20.52;;;;;;;-4.92;79.87;146116.91;5158330;27;20326;-64
2023/03/08 03:38:40;;;;;;;45.40;25.60;;;;;;;-4.90;81.54;146120.75;5130892;27;20212;-65
2023/03/08 03:41:09;;;;;;;41.75;25.92;;;;;;;-4.98;83.05;146100.50;5144120;27;20111;-65
2023/03/08 03:43:35;;;;;;;48.42;28.35;;;;;;;-5.13;84.55;146065.06;5145765;27;20019;-64
2023/03/08 03:46:04;;;;;;;48.70;28.75;;;;;;;-5.07;83.98;146080.22;5131195;27;20388;-65
2023/03/08 03:48:30;;;;;;;57.90;29.55;;;;;;;-5.07;83.86;146080.22;5141374;27;20026;-64
2023/03/08 03:51:00;;;;;;;52.40;30.27;;;;;;;-5.21;86.22;146044.81;5149624;27;20039;-65
2023/03/08 03:53:30;;;;;;;55.55;31.17;;;;;;;-5.22;86.79;146042.25;5151645;27;20030;-65
2023/03/08 03:56:05;;;;;;;55.83;31.90;;;;;;;-5.46;85.84;145982.78;5130157;27;20034;-64
2023/03/08 03:58:30;;;;;;;54.40;29.88;;;;;;;-5.70;88.18;145923.34;5141504;27;20024;-64
2023/03/08 04:00:56;;;;;;;59.10;32.15;;;;;;;-5.44;86.83;145989.13;5143323;27;20035;-66
2023/03/08 04:03:22;;;;;;;58.35;31.90;;;;;;;-5.51;86.57;145971.41;5143759;27;20065;-65
2023/03/08 04:05:47;;;;;;;56.03;30.42;;;;;;;-5.60;86.66;145948.63;5155699;27;20030;-65
2023/03/08 04:08:13;;;;;;;54.50;31.40;;;;;;;-5.57;87.42;145956.25;5153465;27;20014;-64
2023/03/08 04:10:38;;;;;;;56.40;29.20;;;;;;;-5.23;86.19;146039.72;5123158;28;20102;-65
2023/03/08 04:13:04;;;;;;;56.80;29.63;;;;;;;-5.30;85.49;146022.00;5130616;27;20046;-65
2023/03/08 04:15:30;;;;;;;57.38;30.30;;;;;;;-5.44;85.67;145989.13;5150429;27;20132;-65
2023/03/08 04:17:55;;;;;;;61.50;30.80;;;;;;;-5.43;84.31;145991.69;5157052;27;20034;-65
2023/03/08 04:20:22;;;;;;;61.22;30.33;;;;;;;-5.43;85.09;145990.38;5152675;27;20195;-66
2023/03/08 04:22:47;;;;;;;53.83;29.27;;;;;;;-5.23;85.15;146041.00;5146330;27;20030;-64
2023/03/08 04:25:13;;;;;;;60.85;30.13;;;;;;;-5.20;84.89;146048.59;5156948;27;20158;-64
2023/03/08 04:27:39;;;;;;;52.70;28.33;;;;;;;-5.08;84.02;146076.44;5132357;27;20034;-65
2023/03/08 04:30:05;;;;;;;55.97;29.45;;;;;;;-4.94;83.38;146110.63;5143149;27;20027;-66
2023/03/08 04:32:31;;;;;;;59.08;31.45;;;;;;;-4.79;83.95;146147.31;5151085;27;20023;-65
2023/03/08 04:34:57;;;;;;;65.43;33.40;;;;;;;-4.75;82.15;146158.69;5147477;27;20387;-65
2023/03/08 04:37:24;;;;;;;62.78;30.58;;;;;;;-4.75;81.72;146158.69;5155884;27;20027;-66
2023/03/08 04:39:49;;;;;;;72.82;34.35;;;;;;;-4.74;82.82;146160.00;5150349;27;20041;-66
2023/03/08 04:42:15;;;;;;;82.18;38.05;;;;;;;-4.58;82.55;146199.22;5143910;28;20050;-66
2023/03/08 04:44:40;;;;;;;82.38;36.30;;;;;;;-4.66;82.10;146178.97;5151472;27;20034;-65
2023/03/08 04:47:06;;;;;;;84.43;38.90;;;;;;;-4.75;83.08;146158.69;5138134;28;20205;-66
2023/03/08 04:49:31;;;;;;;82.97;36.78;;;;;;;-4.78;83.54;146149.84;5132106;27;20020;-66
2023/03/08 04:51:57;;;;;;;92.05;38.63;;;;;;;-4.75;83.23;146158.69;5151531;27;20046;-66
2023/03/08 04:54:23;;;;;;;96.80;38.92;;;;;;;-5.02;85.78;146091.63;5143646;27;20026;-65
2023/03/08 04:56:48;;;;;;;87.13;37.08;;;;;;;-4.91;85.63;146119.47;5139573;28;20031;-66
2023/03/08 04:59:14;;;;;;;85.53;36.35;;;;;;;-4.75;85.47;146158.69;5128896;27;20023;-66
2023/03/08 05:01:41;;;;;;;82.35;35.97;;;;;;;-4.94;85.10;146110.63;5142955;28;20223;-65
2023/03/08 05:04:09;;;;;;;84.38;36.35;;;;;;;-4.89;85.69;146124.56;5129601;28;20083;-65
2023/03/08 05:06:35;;;;;;;76.13;34.67;;;;;;;-4.94;86.80;146110.63;5140701;27;20220;-67
2023/03/08 05:09:01;;;;;;;75.85;33.90;;;;;;;-4.90;86.06;146122.00;5152301;27;20125;-65
2023/03/08 05:11:28;;;;;;;68.78;30.60;;;;;;;-4.90;86.27;146120.75;5124954;28;20027;-65
2023/03/08 05:13:55;;;;;;;68.53;31.85;;;;;;;-4.93;86.88;146113.13;5146330;27;20323;-65
2023/03/08 05:16:21;;;;;;;58.97;29.45;;;;;;;-4.78;85.71;146151.09;5099027;28;20099;-66
2023/03/08 05:18:47;;;;;;;63.97;31.83;;;;;;;-4.55;85.96;146206.81;5124847;28;20038;-66
2023/03/08 05:21:19;;;;;;;66.85;30.48;;;;;;;-4.65;84.67;146182.75;5153303;27;20027;-65
2023/03/08 05:23:44;;;;;;;;;;;;;;;-4.71;86.68;146167.59;5144362;27;20066;-65
2023/03/08 05:26:13;;;;;;;56.95;28.65;;;;;;;-4.68;86.00;146175.16;5144003;27;20184;-66
2023/03/08 05:28:40;;;;;;;53.28;27.50;;;;;;;-4.63;87.25;146186.56;5144298;27;20061;-66
2023/03/08 05:31:14;;;;;;;54.47;28.13;;;;;;;-4.82;86.91;146140.97;5142604;27;20036;-66
2023/03/08 05:33:41;;;;;;;51.75;28.45;;;;;;;-4.44;86.85;146234.69;5135193;28;20027;-66
2023/03/08 05:36:07;;;;;;;56.95;30.25;;;;;;;-4.57;85.40;146201.78;5144902;27;20338;-67
2023/03/08 05:38:34;;;;;;;59.00;30.45;;;;;;;-4.44;86.07;146234.69;5153706;27;20044;-67
2023/03/08 05:41:01;;;;;;;58.63;30.35;;;;;;;-4.49;86.42;146220.75;5133611;27;20035;-65
2023/03/08 05:43:27;;;;;;;57.17;30.95;;;;;;;-4.29;85.79;146270.13;5141368;27;20023;-66
2023/03/08 05:46:05;;;;;;;58.67;30.52;;;;;;;-4.13;84.90;146309.38;5128971;27;20031;-66
2023/03/08 05:48:33;;;;;;;59.17;30.33;;;;;;;-4.12;84.72;146311.94;5128120;27;20043;-66
2023/03/08 05:50:58;;;;;;;58.72;32.28;;;;;;;-3.94;84.11;146356.28;5148314;27;20071;-66
2023/03/08 05:53:24;;;;;;;58.65;32.33;;;;;;;-4.06;83.88;146328.41;5144221;27;20015;-66
2023/03/08 05:55:50;;;;;;;59.65;31.08;;;;;;;-4.06;84.60;146328.41;5118035;27;20110;-66
2023/03/08 05:58:16;;;;;;;65.30;33.13;;;;;;;-3.86;84.90;146376.56;5155624;27;20319;-66
2023/03/08 06:00:41;;;;;;;60.83;32.08;;;;;;;-3.72;84.15;146410.75;5133642;27;20250;-66
2023/03/08 06:03:07;;;;;;;58.33;32.97;;;;;;;-3.79;83.68;146394.31;5143459;27;20145;-67
2023/03/08 06:05:33;;;;;;;67.70;34.28;;;;;;;-3.88;84.10;146371.47;5144235;27;20063;-66
2023/03/08 06:07:59;;;;;;;61.67;30.42;;;;;;;-3.73;84.13;146409.50;5144840;27;20035;-66
2023/03/08 06:10:25;;;;;;;56.85;31.20;;;;;;;-3.58;83.41;146446.22;5122369;27;20015;-65
2023/03/08 06:12:51;;;;;;;57.40;31.13;;;;;;;-3.70;83.26;146415.84;5144033;27;20030;-65
2023/03/08 06:15:18;;;;;;;56.25;30.45;;;;;;;-3.97;83.91;146348.69;5143975;27;20039;-67
2023/03/08 06:17:43;;;;;;;54.58;31.50;;;;;;;-3.55;84.13;146452.56;5125450;27;20173;-65
2023/03/08 06:20:09;;;;;;;44.05;26.15;;;;;;;-3.70;83.51;146417.09;5143388;27;20022;-66
2023/03/08 06:22:35;;;;;;;41.20;25.73;;;;;;;-3.71;84.03;146414.53;5141966;27;20335;-65
2023/03/08 06:25:01;;;;;;;41.72;22.52;;;;;;;-3.87;83.28;146374.03;5125224;27;20061;-66
2023/03/08 06:27:28;;;;;;;36.47;23.60;;;;;;;-3.66;84.37;146425.97;5140247;27;20035;-66
2023/03/08 06:29:54;;;;;;;36.33;23.92;;;;;;;-3.91;85.12;146365.13;5144123;27;20331;-67
2023/03/08 06:32:20;;;;;;;36.10;23.90;;;;;;;-3.48;83.70;146471.59;5143265;27;20031;-66
2023/03/08 06:34:46;;;;;;;33.53;23.30;;;;;;;-3.36;83.38;146499.50;5143457;27;20019;-67
2023/03/08 06:37:12;;;;;;;33.88;21.95;;;;;;;-3.56;83.37;146451.31;5143745;27;20007;-66
2023/03/08 06:39:38;;;;;;;32.80;22.88;;;;;;;-3.40;83.79;146490.59;5143295;27;20102;-67
2023/03/08 06:42:04;;;;;;;29.08;19.30;;;;;;;-3.84;83.47;146381.63;5143242;27;20035;-67
2023/03/08 06:44:29;;;;;;;30.15;21.30;;;;;;;-3.43;83.01;146483.00;5142276;27;20026;-65
2023/03/08 06:46:56;;;;;;;28.88;20.05;;;;;;;-3.32;82.04;146509.59;5140306;27;20063;-66
2023/03/08 06:49:21;;;;;;;27.90;19.35;;;;;;;-3.43;81.70;146483.00;5142155;27;20223;-66
2023/03/08 06:51:47;;;;;;;28.55;18.95;;;;;;;-3.49;82.14;146467.81;5138630;27;20050;-66
2023/03/08 06:54:16;;;;;;;31.25;20.27;;;;;;;-3.28;81.78;146519.75;5142943;27;20098;-66
2023/03/08 06:56:46;;;;;;;29.33;19.33;;;;;;;-3.38;82.11;146495.66;5143595;27;20304;-66
2023/03/08 06:59:13;;;;;;;29.48;19.90;;;;;;;-3.21;81.69;146537.47;5143723;27;20056;-67
2023/03/08 07:01:38;;;;;;;27.20;17.48;;;;;;;-3.00;80.55;146589.47;5143492;27;20253;-67
2023/03/08 07:04:04;;;;;;;24.67;17.70;;;;;;;-3.11;81.12;146561.56;5144808;27;20063;-67
2023/03/08 07:06:30;;;;;;;28.08;17.60;;;;;;;-3.49;82.37;146467.81;5132925;27;20107;-66
2023/03/08 07:08:55;;;;;;;27.13;17.70;;;;;;;-3.50;82.38;146465.25;5156161;27;20022;-66
2023/03/08 07:11:21;;;;;;;27.05;18.08;;;;;;;-3.25;81.79;146527.38;5148356;27;20059;-66
2023/03/08 07:13:47;;;;;;;28.00;17.45;;;;;;;-3.13;82.23;146556.53;5145729;27;20226;-66
2023/03/08 07:16:13;;;;;;;22.30;16.25;;;;;;;-3.44;81.49;146480.44;5158819;27;20030;-66
2023/03/08 07:18:39;;;;;;;26.33;17.90;;;;;;;-3.19;81.56;146541.28;5151528;27;20020;-67
2023/03/08 07:21:05;;;;;;;24.52;16.10;;;;;;;-3.40;81.69;146490.59;5157041;27;20031;-67
2023/03/08 07:23:31;;;;;;;26.33;16.67;;;;;;;-3.45;81.00;146477.91;5146407;27;20336;-68
2023/03/08 07:25:56;;;;;;;27.92;17.05;;;;;;;-3.64;81.68;146432.28;5129089;27;20039;-67
2023/03/08 07:28:22;;;;;;;24.90;16.15;;;;;;;-3.58;82.31;146444.97;5157619;27;20019;-66
2023/03/08 07:30:52;;;;;;;24.02;16.90;;;;;;;-3.73;82.32;146409.50;5133093;27;20058;-66
2023/03/08 07:33:19;;;;;;;25.25;16.85;;;;;;;-3.85;83.33;146379.06;5139566;27;20154;-66
2023/03/08 07:35:45;;;;;;;25.10;16.83;;;;;;;-3.54;82.79;146456.38;5153227;27;20090;-66
2023/03/08 07:38:11;;;;;;;23.58;15.77;;;;;;;-3.45;81.71;146476.66;5149061;27;20350;-65
2023/03/08 07:40:37;;;;;;;22.98;15.43;;;;;;;-3.57;82.28;146448.78;5155635;27;20068;-65
2023/03/08 07:43:02;;;;;;;22.83;15.27;;;;;;;-3.38;82.02;146495.66;5143975;27;20330;-67
2023/03/08 07:45:29;;;;;;;20.88;14.30;;;;;;;-3.35;80.85;146503.28;5159492;27;20086;-66
2023/03/08 07:47:54;;;;;;;17.67;10.98;;;;;;;-3.41;80.35;146486.81;5152808;27;20026;-65
2023/03/08 07:50:20;;;;;;;18.30;13.20;;;;;;;-3.24;80.24;146528.63;5131797;27;20030;-66
2023/03/08 07:52:46;;;;;;;18.55;13.38;;;;;;;-3.00;80.11;146588.22;5155858;27;20014;-66
2023/03/08 07:55:12;;;;;;;21.17;14.60;;;;;;;-2.95;79.88;146602.19;5151792;27;20325;-66
2023/03/08 07:57:38;;;;;;;18.77;11.93;;;;;;;-2.93;78.72;146604.72;5143308;27;20098;-67
2023/03/08 08:00:08;;;;;;;19.33;13.68;;;;;;;-2.72;78.77;146657.97;5151681;27;20019;-66
2023/03/08 08:02:35;;;;;;;16.75;12.30;;;;;;;-2.72;78.00;146657.97;5135940;27;20027;-67
2023/03/08 08:05:02;;;;;;;16.85;12.35;;;;;;;-2.47;78.21;146718.84;5125913;27;20042;-66
2023/03/08 08:07:30;;;;;;;20.73;13.15;;;;;;;-2.67;78.22;146669.38;5144002;27;20358;-65
2023/03/08 08:09:55;;;;;;;17.35;12.27;;;;;;;-2.64;78.29;146678.28;5124999;27;20043;-66
2023/03/08 08:12:22;;;;;;;18.58;13.02;;;;;;;-2.71;78.39;146660.47;5136976;27;20019;-66
2023/03/08 08:14:51;;;;;;;18.52;13.02;;;;;;;-2.60;78.24;146687.13;5104810;28;20156;-67
2023/03/08 08:17:18;;;;;;;19.10;13.00;;;;;;;-2.35;77.86;146749.31;5141204;27;20027;-67
2023/03/08 08:19:44;;;;;;;14.68;10.77;;;;;;;-2.54;77.06;146701.09;5129458;27;20071;-67
2023/03/08 08:22:10;;;;;;;16.92;11.45;;;;;;;-3.20;78.37;146538.78;5143978;27;20894;-66
2023/03/08 08:24:35;;;;;;;16.35;11.48;;;;;;;-2.61;77.32;146685.88;5135181;27;20043;-67
2023/03/08 08:27:01;;;;;;;17.15;11.38;;;;;;;-2.57;77.39;146694.75;5144531;27;20200;-66
2023/03/08 08:29:26;;;;;;;19.90;12.25;;;;;;;-2.64;78.07;146676.97;5150167;27;20057;-67
2023/03/08 08:31:52;;;;;;;17.95;12.25;;;;;;;-2.45;77.63;146723.94;5147095;27;20080;-66
2023/03/08 08:34:19;;;;;;;18.38;12.10;;;;;;;-2.49;77.45;146713.78;5124997;28;20065;-68
2023/03/08 08:36:45;;;;;;;15.05;10.88;;;;;;;-2.40;78.00;146735.34;5153505;27;20030;-66
2023/03/08 08:39:11;;;;;;;17.25;10.02;;;;;;;-2.33;76.42;146754.38;5145277;27;20024;-65
2023/03/08 08:41:36;;;;;;;12.65;9.60;;;;;;;-2.10;75.48;146810.19;5143277;28;20030;-66
2023/03/08 08:44:02;;;;;;;13.30;9.15;;;;;;;-2.40;76.08;146736.59;5126776;27;20166;-67
2023/03/08 08:46:30;;;;;;;13.70;9.55;;;;;;;-2.21;76.48;146783.53;5143820;28;20122;-65
2023/03/08 08:48:57;;;;;;;10.40;8.82;;;;;;;-2.14;76.75;146800.03;5154072;27;20023;-66
2023/03/08 08:51:22;;;;;;;11.80;8.70;;;;;;;-1.91;75.27;146857.13;5145864;27;20335;-67
2023/03/08 08:53:49;;;;;;;11.40;8.50;;;;;;;-2.01;75.00;146831.78;5145913;27;20027;-68
2023/03/08 08:56:17;;;;;;;11.57;7.70;;;;;;;-2.49;75.70;146713.78;5143045;28;20287;-66
2023/03/08 08:58:43;;;;;;;10.05;7.75;;;;;;;-2.32;74.35;146756.91;5143330;28;20030;-66
2023/03/08 09:01:17;;;;;;;10.73;7.25;;;;;;;-2.16;74.30;146795.00;5139920;28;20046;-65
2023/03/08 09:03:44;;;;;;;11.88;8.38;;;;;;;-1.70;74.30;146907.94;5143298;28;20079;-66
2023/03/08 09:06:10;;;;;;;9.55;7.50;;;;;;;-2.00;74.28;146835.56;5146664;27;20023;-67
2023/03/08 09:08:36;;;;;;;11.02;7.72;;;;;;;-1.86;73.78;146868.59;5150426;27;20026;-66
2023/03/08 09:11:04;;;;;;;11.75;7.40;;;;;;;-2.18;73.66;146789.88;5147665;27;20236;-66
2023/03/08 09:13:30;;;;;;;8.93;7.65;;;;;;;-2.12;73.45;146805.16;5144994;27;20090;-65
2023/03/08 09:15:56;;;;;;;11.70;8.13;;;;;;;-1.99;73.82;146838.13;5159984;27;20191;-65
2023/03/08 09:18:22;;;;;;;14.45;8.63;;;;;;;-1.66;73.80;146919.34;5150895;27;20055;-65
2023/03/08 09:20:47;;;;;;;10.32;8.65;;;;;;;-1.70;72.44;146909.19;5151454;27;20381;-68
2023/03/08 09:23:13;;;;;;;9.13;8.02;;;;;;;-1.85;73.37;146872.41;5154982;27;20063;-66
2023/03/08 09:25:38;;;;;;;10.75;8.38;;;;;;;-1.76;73.54;146895.22;5128599;27;20040;-66
2023/03/08 09:28:04;;;;;;;11.55;8.25;;;;;;;-1.86;73.18;146868.59;5159721;27;20266;-65
2023/03/08 09:30:31;;;;;;;11.88;8.73;;;;;;;-1.91;73.37;146858.44;5151540;27;20023;-65
2023/03/08 09:32:58;;;;;;;12.25;8.27;;;;;;;-1.77;73.25;146891.41;5134666;27;20035;-66
2023/03/08 09:35:24;;;;;;;10.50;8.75;;;;;;;-1.65;72.78;146921.91;5130398;27;20027;-67
2023/03/08 09:37:49;;;;;;;10.95;8.80;;;;;;;-1.29;72.48;147010.78;5111860;27;20309;-66
2023/03/08 09:40:44;;;;;;;10.38;8.30;;;;;;;-1.44;72.92;146973.97;5139292;27;20023;-66
2023/03/08 09:43:24;;;;;;;14.05;8.95;;;;;;;-1.73;72.75;146902.84;5131535;27;20027;-66
2023/03/08 09:45:53;;;;;;;11.63;9.15;;;;;;;-1.85;73.19;146872.41;5147512;27;20092;-66
2023/03/08 09:48:28;;;;;;;13.00;8.82;;;;;;;-1.71;72.59;146906.69;5152343;27;20031;-66
2023/03/08 09:50:58;;;;;;;11.77;8.85;;;;;;;-2.10;73.55;146811.44;5138295;27;20043;-65
2023/03/08 09:53:33;;;;;;;12.27;8.65;;;;;;;-1.88;73.41;146863.50;5155755;27;20033;-65
2023/03/08 09:56:05;;;;;;;11.23;8.10;;;;;;;-1.96;73.83;146845.72;5131794;27;20042;-66
2023/03/08 09:58:31;;;;;;;13.00;9.23;;;;;;;-1.78;74.02;146888.88;5158618;27;20019;-67
2023/03/08 10:01:14;;;;;;;10.05;6.72;;;;;;;-1.95;72.94;146847.03;5146383;27;20092;-67
2023/03/08 10:03:55;;;;;;;11.95;8.45;;;;;;;-1.81;73.93;146881.25;5127259;27;20027;-66
2023/03/08 10:07:07;;;;;;;9.63;8.43;;;;;;;-1.45;72.84;146970.16;5131900;27;20191;-68
2023/03/08 10:09:40;;;;;;;11.57;8.85;;;;;;;-1.26;72.42;147017.13;5129066;27;20049;-66
2023/03/08 10:12:28;;;;;;;13.10;9.07;;;;;;;-1.61;72.39;146930.75;5146136;27;20018;-67
2023/03/08 10:15:07;;;;;;;8.90;7.35;;;;;;;-2.06;73.86;146820.34;5136502;27;20019;-65
2023/03/08 10:18:12;;;;;;;12.00;8.95;;;;;;;-1.75;72.87;146896.53;5151994;27;20038;-67
2023/03/08 10:20:40;;;;;;;11.05;8.85;;;;;;;-1.65;72.96;146920.66;5121854;27;20050;-66
2023/03/08 10:23:17;;;;;;;12.18;8.30;;;;;;;-1.94;72.88;146850.84;5148365;27;20033;-65
2023/03/08 10:25:43;;;;;;;12.48;9.77;;;;;;;-1.39;72.54;146986.63;5133628;27;20047;-66
2023/03/08 10:28:21;;;;;;;11.13;9.85;;;;;;;-1.26;72.52;147018.38;5139615;27;20019;-66
2023/03/08 10:30:58;;;;;;;15.45;9.32;;;;;;;-1.40;72.12;146984.13;5140243;27;20087;-66
2023/03/08 10:33:31;;;;;;;12.50;9.20;;;;;;;-1.30;72.00;147008.22;5158734;27;20023;-65
2023/03/08 10:36:06;;;;;;;11.02;8.88;;;;;;;-1.86;73.45;146868.59;5148531;27;20033;-67
2023/03/08 10:38:34;;;;;;;11.38;8.50;;;;;;;-1.76;72.74;146895.22;5137181;27;20046;-67
2023/03/08 10:41:11;;;;;;;13.82;9.60;;;;;;;-1.60;73.67;146934.56;5154485;27;20030;-65
2023/03/08 10:43:56;;;;;;;12.13;10.65;;;;;;;-1.80;73.72;146883.81;5145496;27;20091;-68
2023/03/08 10:46:29;;;;;;;15.35;10.40;;;;;;;-1.65;73.03;146921.91;5144806;27;20022;-66
2023/03/08 10:49:23;;;;;;;14.10;10.15;;;;;;;-1.50;73.13;146957.44;5152956;27;20019;-66
2023/03/08 10:52:00;;;;;;;13.05;9.77;;;;;;;-1.76;73.44;146893.97;5138045;27;20035;-68
2023/03/08 10:54:27;;;;;;;14.57;10.40;;;;;;;-1.82;73.29;146880.00;5132763;27;20024;-66
2023/03/08 10:56:57;;;;;;;12.02;9.80;;;;;;;-1.64;73.08;146923.16;5136741;27;20035;-65
2023/03/08 10:59:31;;;;;;;19.00;10.93;;;;;;;-1.38;72.51;146987.94;5136296;27;20019;-68
2023/03/08 11:02:14;;;;;;;13.77;10.48;;;;;;;-1.41;72.68;146980.28;5140615;27;20027;-67
2023/03/08 11:04:55;;;;;;;16.25;11.20;;;;;;;-1.17;72.06;147038.72;5135192;27;20083;-66
2023/03/08 11:07:24;;;;;;;14.63;10.63;;;;;;;-0.81;71.37;147127.63;5132188;27;20058;-65
2023/03/08 11:09:50;;;;;;;14.70;10.52;;;;;;;-0.76;71.05;147140.34;5140171;27;20051;-66
2023/03/08 11:12:24;;;;;;;13.80;11.43;;;;;;;-0.58;70.39;147184.81;5143942;27;20019;-65
2023/03/08 11:14:51;;;;;;;15.38;11.27;;;;;;;-0.86;70.61;147116.19;5145446;27;20034;-67